KRKR

Robert S Kerr Airport

Poteau, Oklahoma, USA
METAR KRKR 232315Z AUTO 30003KT 10SM CLR 09/M06 A3028 RMK AO2
Observed Flight Rules
Jan-23 @ 23:15 UTC (27 minutes ago) Visual Flight Rules
Wind Visibility Clouds
300° at 3 knots 10 miles
  • Clear skies
Temperatures Readings
Current 9°C / 48°F
Dewpoint -6°C / 21°F
Humidity 34%
Altimeter 30.28" Hg
Pressure 1025 hPa
Elevation 138
METAR KRKR 232315Z AUTO 30003KT 10SM CLR 09/M06 A3028 RMK AO2
Observed Flight Rules
Jan-23 @ 23:15 UTC
(27 minutes ago)
VFR
Wind Visibility
300° at 3 knots 10 miles
Clouds
  • Clear skies
Temperature Dewpoint
9°C / 48°F -6°C / 21°F
Humidity Altimeter Pressure
34% 30.28" Hg 1025 hPa